Atqasuk, AK

4:23 AM AKDT on August 28, 2014 (GMT -0800)
Atqasuk Edward Burnell Sr Mem | Change Station
CLOSE
Current Station
Airport
Location: Atqasuk Edward Burnell Sr Mem,
Elevation: 95 ft
Nearby Weather Stations

Elev 95 ft 70.47 °N, 157.44 °W | Updated 27 minutes ago

Light Rain
Light Rain
46 °F
Feels Like 42 °F
N
8
Wind Variable Wind from SSW

Today
High -- | Low -- °F
--% Chance of Precip.
Yesterday
High -- | Low -- °F
Precip. -- in
6:25 AM 10:33 PM
Waxing Crescent, 8% visible
Pressure 29.41 in
Visibility 10.0 miles
Clouds Mostly Cloudy 2400 ft
Mostly Cloudy 3100 ft
Overcast 6500 ft
Windchill 42 °F
Dew Point 46 °F
Humidity 100%
Rainfall 0.00 in
Snow Depth Not available.
UV 0 out of 12
Pollen Not available.
Air Quality Not available.
Flu Activity Not available.
METAR PATQ 281156Z AUTO 21007KT 10SM -RA BKN024 BKN031 OVC065 08/08 A2941 RMK AO2

More Conditions Fewer Conditions

Pressure 29.41 in
Visibility 10.0 miles
Clouds Mostly Cloudy 2400 ft
Mostly Cloudy 3100 ft
Overcast 6500 ft
Windchill 42 °F
Dew Point 46 °F
Humidity 100%
Rainfall 0.00 in
Snow Depth Not available.
UV 0 out of 12
Pollen Not available.
Air Quality Not available.
Flu Activity Not available.
METAR PATQ 281156Z AUTO 21007KT 10SM -RA BKN024 BKN031 OVC065 08/08 A2941 RMK AO2

More Conditions Fewer Conditions

10-Day Weather Forecast

Almanac

Astronomy

Aug. 28, 2014 Rise Set
Actual Time 6:25 AM AKDT 10:33 PM AKDT
Civil Twilight 5:00 AM AKDT 11:55 PM AKDT
Nautical Twilight Sun does not rise Sun does not rise
Astronomical Twilight Sun does not rise Sun does not rise
Moon 11:40 AM AKDT 9:41 PM AKDT
Length of Visible Light 18h 55m
Length of Day
16h 07m
Tomorrow will be 9m 35s shorter.
Waxing Crescent, 8% of the Moon is Illuminated
Today
Waxing Crescent
Sep 2
First Quarter
Sep 8
Full
Sep 15
Last Quarter
Sep 24
New

Today's Extremes

State Highs State Lows

Community

WunderPhotos

Upload Photos

1,747,938 photos uploaded!

Nearby

Snow Depth

Station Depth Elevation
Atigun Pass 0 in 4800 ft
Coldfoot 0 in 1040 ft
Gobblers Knob 0 in 2030 ft
Fort Yukon 0 in 430 ft
Rocky Point 4 in 500 ft

Earthquake Activity

City Distance Mag. Time & Date
No recent earthquake activity has been reported nearby.
Minimum magnitude displayed is 2.5.

Coastal Water Temperatures

Place Temperature
No Stations Reporting

Nearby Weather Stations